Time;durP1;ratioP1;P1;durP2;ratioP2;P2;SDS_P1;SDS_P2;PMS_P1;PMS_P2;Temp;Humidity;BMP_temperature;BMP_pressure;BME280_temperature;BME280_humidity;BME280_pressure;Samples;Min_cycle;Max_cycle;Signal;HPM_P1;HPM_P2
2020/12/19 00:01:29;;;;;;;18.30;9.20;;;;;;;;;;5015436;28;20076;-86
2020/12/19 00:03:55;;;;;;;17.75;9.48;;;;;;;;;;4997708;28;20042;-86
2020/12/19 00:06:21;;;;;;;24.17;9.88;;;;;;;;;;4997728;28;20104;-86
2020/12/19 00:08:47;;;;;;;14.82;9.32;;;;;;;;;;5014744;28;20050;-86
2020/12/19 00:11:14;;;;;;;13.38;8.60;;;;;;;;;;5015247;28;20459;-85
2020/12/19 00:13:40;;;;;;;19.30;9.77;;;;;;;;;;5015052;28;20048;-86
2020/12/19 00:16:06;;;;;;;17.70;10.38;;;;;;;;;;5014592;28;20049;-86
2020/12/19 00:18:32;;;;;;;17.92;8.85;;;;;;;;;;5014551;28;20124;-86
2020/12/19 00:20:58;;;;;;;9.85;7.50;;;;;;;;;;4981405;28;20457;-86
2020/12/19 00:23:24;;;;;;;10.52;7.20;;;;;;;;;;4998059;28;20046;-85
2020/12/19 00:25:50;;;;;;;23.77;9.10;;;;;;;;;;4981420;28;20446;-86
2020/12/19 00:28:17;;;;;;;16.65;7.75;;;;;;;;;;5014849;28;20042;-87
2020/12/19 00:30:43;;;;;;;22.63;8.93;;;;;;;;;;5014937;28;20046;-86
2020/12/19 00:33:09;;;;;;;13.30;7.55;;;;;;;;;;5014505;28;20064;-86
2020/12/19 00:35:35;;;;;;;18.48;7.82;;;;;;;;;;4981352;28;20053;-86
2020/12/19 00:38:01;;;;;;;15.15;7.97;;;;;;;;;;5014554;28;20412;-86
2020/12/19 00:40:27;;;;;;;13.63;7.95;;;;;;;;;;4996874;28;20046;-85
2020/12/19 00:42:53;;;;;;;24.40;8.07;;;;;;;;;;5000064;28;20088;-86
2020/12/19 00:45:20;;;;;;;15.50;7.60;;;;;;;;;;4977908;28;20042;-86
2020/12/19 00:47:46;;;;;;;9.95;7.05;;;;;;;;;;4978564;28;20093;-86
2020/12/19 00:50:12;;;;;;;37.28;10.20;;;;;;;;;;4977466;28;20497;-86
2020/12/19 00:52:38;;;;;;;19.02;8.00;;;;;;;;;;4994559;28;20046;-86
2020/12/19 00:55:07;;;;;;;13.15;7.28;;;;;;;;;;4993732;28;20046;-86
2020/12/19 00:57:34;;;;;;;27.25;7.90;;;;;;;;;;4997855;28;20078;-86
2020/12/19 01:00:00;;;;;;;12.55;7.07;;;;;;;;;;4979647;28;20506;-86
2020/12/19 01:02:27;;;;;;;17.50;8.00;;;;;;;;;;4998149;28;20478;-86
2020/12/19 01:04:54;;;;;;;18.20;7.70;;;;;;;;;;4998802;28;20042;-86
2020/12/19 01:07:20;;;;;;;34.72;9.82;;;;;;;;;;4998494;28;20057;-85
2020/12/19 01:09:46;;;;;;;9.43;6.45;;;;;;;;;;4981144;28;20402;-86
2020/12/19 01:12:12;;;;;;;18.10;8.43;;;;;;;;;;4980827;28;20434;-86
2020/12/19 01:14:38;;;;;;;14.75;7.55;;;;;;;;;;4998951;28;20082;-86
2020/12/19 01:17:05;;;;;;;12.32;7.55;;;;;;;;;;4999393;28;20178;-85
2020/12/19 01:19:32;;;;;;;17.65;7.50;;;;;;;;;;4998603;28;20105;-85
2020/12/19 01:21:58;;;;;;;12.07;7.13;;;;;;;;;;4999298;28;20049;-86
2020/12/19 01:24:24;;;;;;;10.98;6.80;;;;;;;;;;4998066;28;20069;-86
2020/12/19 01:26:50;;;;;;;11.07;7.90;;;;;;;;;;4998761;28;20446;-86
2020/12/19 01:29:16;;;;;;;16.88;8.07;;;;;;;;;;4981657;28;20351;-86
2020/12/19 01:31:42;;;;;;;24.90;8.77;;;;;;;;;;4998296;28;20047;-86
2020/12/19 01:34:08;;;;;;;13.55;8.68;;;;;;;;;;4997661;28;20050;-86
2020/12/19 01:36:35;;;;;;;13.15;7.50;;;;;;;;;;4980423;28;20475;-86
2020/12/19 01:39:01;;;;;;;10.65;7.07;;;;;;;;;;4997703;28;20050;-86
2020/12/19 01:41:27;;;;;;;11.20;7.30;;;;;;;;;;4997269;28;20136;-86
2020/12/19 01:43:55;;;;;;;13.10;7.65;;;;;;;;;;4997501;28;20054;-86
2020/12/19 01:46:27;;;;;;;15.18;7.90;;;;;;;;;;4998740;28;20050;-86
2020/12/19 01:48:54;;;;;;;13.35;7.97;;;;;;;;;;4997984;28;20073;-86
2020/12/19 01:51:21;;;;;;;16.25;8.63;;;;;;;;;;4997643;28;20050;-86
2020/12/19 01:53:48;;;;;;;29.40;8.38;;;;;;;;;;4979908;28;20038;-86
2020/12/19 01:56:17;;;;;;;13.32;8.05;;;;;;;;;;4997063;28;20046;-86
2020/12/19 01:58:43;;;;;;;12.15;7.57;;;;;;;;;;4997660;28;20043;-86
2020/12/19 02:01:10;;;;;;;13.68;7.25;;;;;;;;;;4998041;28;20039;-85
2020/12/19 02:03:36;;;;;;;14.20;7.72;;;;;;;;;;4976160;23;20156;-86
2020/12/19 02:06:03;;;;;;;13.45;8.20;;;;;;;;;;4997921;28;20482;-86
2020/12/19 02:08:29;;;;;;;12.13;7.88;;;;;;;;;;5010805;28;20499;-86
2020/12/19 02:10:56;;;;;;;10.27;6.97;;;;;;;;;;4998200;28;20042;-86
2020/12/19 02:13:22;;;;;;;16.50;8.43;;;;;;;;;;4996957;28;20108;-86
2020/12/19 02:15:48;;;;;;;14.93;8.52;;;;;;;;;;5014623;28;20065;-86
2020/12/19 02:18:13;;;;;;;17.33;10.90;;;;;;;;;;5013940;28;20045;-86
2020/12/19 02:20:40;;;;;;;22.23;8.82;;;;;;;;;;5014513;28;20129;-85
2020/12/19 02:23:07;;;;;;;23.52;11.80;;;;;;;;;;4997612;28;20050;-86
2020/12/19 02:25:36;;;;;;;12.73;8.27;;;;;;;;;;5015250;28;20065;-85
2020/12/19 02:28:04;;;;;;;9.77;6.95;;;;;;;;;;5015144;28;20478;-86
2020/12/19 02:30:30;;;;;;;10.90;7.35;;;;;;;;;;5015085;28;20073;-86
2020/12/19 02:32:56;;;;;;;11.77;8.30;;;;;;;;;;5014952;28;20125;-86
2020/12/19 02:35:22;;;;;;;29.13;8.45;;;;;;;;;;4997559;28;20125;-86
2020/12/19 02:37:48;;;;;;;14.27;8.25;;;;;;;;;;5005230;28;20042;-86
2020/12/19 02:40:14;;;;;;;9.93;7.40;;;;;;;;;;4978637;28;20086;-85
2020/12/19 02:42:42;;;;;;;15.43;7.03;;;;;;;;;;4995735;28;20130;-86
2020/12/19 02:45:08;;;;;;;26.92;8.13;;;;;;;;;;4977672;28;20049;-86
2020/12/19 02:47:34;;;;;;;10.20;6.82;;;;;;;;;;4977534;28;20046;-86
2020/12/19 02:50:00;;;;;;;12.55;8.68;;;;;;;;;;4978408;28;20042;-86
2020/12/19 02:52:26;;;;;;;11.82;7.15;;;;;;;;;;4995104;28;20097;-86
2020/12/19 02:54:52;;;;;;;12.07;7.63;;;;;;;;;;4977486;28;20093;-86
2020/12/19 02:57:18;;;;;;;14.93;8.77;;;;;;;;;;4995600;28;20442;-85
2020/12/19 02:59:45;;;;;;;12.05;7.47;;;;;;;;;;4977679;28;20045;-86
2020/12/19 03:02:11;;;;;;;9.55;6.85;;;;;;;;;;4995013;28;20183;-86
2020/12/19 03:04:37;;;;;;;14.68;7.38;;;;;;;;;;4996202;28;20495;-86
2020/12/19 03:07:03;;;;;;;11.05;7.93;;;;;;;;;;4977849;28;20376;-86
2020/12/19 03:09:29;;;;;;;9.05;6.72;;;;;;;;;;5007506;28;20048;-86
2020/12/19 03:11:55;;;;;;;37.85;8.38;;;;;;;;;;4995656;28;20072;-85
2020/12/19 03:14:21;;;;;;;20.58;7.90;;;;;;;;;;4976875;28;20046;-85
2020/12/19 03:16:48;;;;;;;25.58;9.30;;;;;;;;;;4993975;28;20053;-85
2020/12/19 03:19:14;;;;;;;13.23;6.82;;;;;;;;;;4994630;28;20057;-86
2020/12/19 03:21:40;;;;;;;15.20;7.70;;;;;;;;;;4994779;28;20043;-85
2020/12/19 03:24:06;;;;;;;10.18;7.47;;;;;;;;;;4995039;28;20046;-85
2020/12/19 03:26:32;;;;;;;13.75;7.40;;;;;;;;;;4994080;28;20050;-85
2020/12/19 03:28:58;;;;;;;14.25;7.32;;;;;;;;;;4983080;28;20041;-86
2020/12/19 03:31:24;;;;;;;13.35;7.32;;;;;;;;;;5014287;28;20429;-86
2020/12/19 03:33:52;;;;;;;12.65;7.47;;;;;;;;;;5013863;28;20045;-86
2020/12/19 03:36:18;;;;;;;30.88;8.23;;;;;;;;;;5014257;28;20034;-85
2020/12/19 03:38:44;;;;;;;23.63;9.25;;;;;;;;;;4997237;28;20042;-86
2020/12/19 03:41:10;;;;;;;12.55;7.40;;;;;;;;;;5013456;28;20073;-85
2020/12/19 03:43:36;;;;;;;12.75;8.05;;;;;;;;;;5014124;28;20101;-85
2020/12/19 03:46:02;;;;;;;15.07;6.90;;;;;;;;;;5014184;28;20148;-86
2020/12/19 03:48:29;;;;;;;11.93;6.90;;;;;;;;;;4996398;28;20530;-86
2020/12/19 03:50:56;;;;;;;10.60;7.00;;;;;;;;;;4996394;28;20064;-85
2020/12/19 03:53:22;;;;;;;9.70;6.90;;;;;;;;;;5013816;28;20046;-86
2020/12/19 03:55:48;;;;;;;13.95;7.55;;;;;;;;;;4980208;28;20478;-86
2020/12/19 03:58:14;;;;;;;9.27;6.45;;;;;;;;;;5013991;28;20048;-85
2020/12/19 04:00:40;;;;;;;16.30;7.28;;;;;;;;;;4996578;28;20042;-86
2020/12/19 04:03:06;;;;;;;9.90;6.78;;;;;;;;;;5013569;28;20478;-86
2020/12/19 04:05:31;;;;;;;15.35;7.38;;;;;;;;;;5013223;28;20459;-86
2020/12/19 04:07:58;;;;;;;10.38;7.07;;;;;;;;;;4995438;28;20042;-86
2020/12/19 04:10:24;;;;;;;11.20;6.47;;;;;;;;;;4996514;28;20092;-86
2020/12/19 04:12:50;;;;;;;12.43;7.38;;;;;;;;;;4995930;28;20371;-86
2020/12/19 04:15:22;;;;;;;11.27;6.57;;;;;;;;;;4995767;28;20101;-86
2020/12/19 04:17:49;;;;;;;23.30;7.60;;;;;;;;;;5012479;28;20042;-85
2020/12/19 04:20:15;;;;;;;9.95;6.65;;;;;;;;;;5012331;28;20057;-86
2020/12/19 04:22:41;;;;;;;20.73;8.15;;;;;;;;;;5013084;28;20054;-86
2020/12/19 04:25:09;;;;;;;11.43;6.85;;;;;;;;;;4995248;28;20050;-86
2020/12/19 04:27:35;;;;;;;11.70;6.95;;;;;;;;;;5012709;28;20498;-86
2020/12/19 04:30:01;;;;;;;15.05;7.60;;;;;;;;;;5013503;28;20056;-85
2020/12/19 04:32:27;;;;;;;16.90;8.40;;;;;;;;;;4985198;28;20580;-86
2020/12/19 04:34:53;;;;;;;11.20;7.10;;;;;;;;;;5003206;28;20052;-86
2020/12/19 04:37:19;;;;;;;9.65;6.50;;;;;;;;;;5020776;28;20069;-86
2020/12/19 04:39:45;;;;;;;14.98;7.40;;;;;;;;;;5019771;28;20049;-86
2020/12/19 04:42:13;;;;;;;20.55;7.80;;;;;;;;;;5021593;28;20052;-86
2020/12/19 04:44:39;;;;;;;13.52;6.13;;;;;;;;;;5021804;28;20426;-86
2020/12/19 04:47:05;;;;;;;13.80;6.47;;;;;;;;;;5003774;28;20489;-86
2020/12/19 04:49:32;;;;;;;11.20;6.30;;;;;;;;;;5003706;28;20053;-86
2020/12/19 04:51:58;;;;;;;10.82;6.90;;;;;;;;;;4988223;28;20053;-86
2020/12/19 04:54:24;;;;;;;11.55;6.80;;;;;;;;;;5020457;28;20041;-86
2020/12/19 04:56:54;;;;;;;7.88;6.15;;;;;;;;;;5003742;28;20041;-86
2020/12/19 04:59:22;;;;;;;12.25;6.00;;;;;;;;;;5021005;28;20076;-86
2020/12/19 05:01:48;;;;;;;8.02;5.80;;;;;;;;;;5021124;28;20044;-85
2020/12/19 05:04:14;;;;;;;24.50;6.72;;;;;;;;;;5019258;28;20464;-86
2020/12/19 05:06:40;;;;;;;12.88;6.00;;;;;;;;;;5001694;28;20078;-86
2020/12/19 05:09:08;;;;;;;24.33;8.27;;;;;;;;;;5019537;28;20042;-86
2020/12/19 05:11:36;;;;;;;14.43;6.53;;;;;;;;;;5018813;28;20045;-86
2020/12/19 05:14:04;;;;;;;13.57;5.95;;;;;;;;;;5001982;28;20537;-86
2020/12/19 05:16:31;;;;;;;17.85;7.70;;;;;;;;;;5019254;28;20049;-86
2020/12/19 05:18:57;;;;;;;17.13;6.82;;;;;;;;;;5019409;28;20092;-86
2020/12/19 05:21:25;;;;;;;37.40;8.85;;;;;;;;;;5018995;28;20046;-86
2020/12/19 05:23:51;;;;;;;9.88;6.35;;;;;;;;;;5017666;28;20074;-86
2020/12/19 05:26:17;;;;;;;12.60;6.35;;;;;;;;;;5019426;28;20053;-86
2020/12/19 05:28:44;;;;;;;15.00;6.53;;;;;;;;;;5001389;28;20092;-86
2020/12/19 05:31:12;;;;;;;20.00;5.95;;;;;;;;;;5018573;28;20580;-86
2020/12/19 05:33:40;;;;;;;14.35;6.20;;;;;;;;;;5019259;28;20398;-86
2020/12/19 05:36:07;;;;;;;16.63;6.47;;;;;;;;;;5018803;28;20108;-85
2020/12/19 05:38:39;;;;;;;11.77;5.53;;;;;;;;;;5001378;28;20038;-86
2020/12/19 05:41:05;;;;;;;17.77;6.43;;;;;;;;;;5019882;28;20070;-86
2020/12/19 05:43:31;;;;;;;12.23;6.18;;;;;;;;;;4999660;28;20038;-84
2020/12/19 05:45:57;;;;;;;17.25;6.25;;;;;;;;;;4999716;28;20050;-83
2020/12/19 05:48:23;;;;;;;15.93;6.90;;;;;;;;;;5016189;28;20053;-85
2020/12/19 05:50:50;;;;;;;16.45;6.57;;;;;;;;;;5016992;28;20117;-86
2020/12/19 05:53:16;;;;;;;21.13;7.38;;;;;;;;;;5007281;28;20043;-86
2020/12/19 05:55:43;;;;;;;10.75;7.10;;;;;;;;;;4962827;28;20046;-85
2020/12/19 05:58:09;;;;;;;17.95;6.22;;;;;;;;;;4996150;28;20096;-86
2020/12/19 06:00:35;;;;;;;34.28;9.27;;;;;;;;;;4998040;28;20046;-86
2020/12/19 06:03:02;;;;;;;37.60;8.30;;;;;;;;;;4998841;28;20120;-86
2020/12/19 06:05:30;;;;;;;10.98;6.47;;;;;;;;;;5016237;28;20049;-86
2020/12/19 06:07:57;;;;;;;22.05;8.73;;;;;;;;;;5017010;28;20205;-86
2020/12/19 06:10:23;;;;;;;19.30;8.52;;;;;;;;;;5016641;28;20049;-86
2020/12/19 06:13:02;;;;;;;11.25;7.38;;;;;;;;;;5016589;28;20041;-86
2020/12/19 06:15:39;;;;;;;38.83;8.88;;;;;;;;;;4998767;28;20552;-87
2020/12/19 06:18:14;;;;;;;23.13;7.65;;;;;;;;;;4983697;28;20046;-86
2020/12/19 06:20:40;;;;;;;13.27;6.82;;;;;;;;;;5017239;28;20054;-88
2020/12/19 06:23:24;;;;;;;;;;;;;;;;;;;;;
2020/12/19 06:25:54;;;;;;;11.27;6.72;;;;;;;;;;5023172;28;20054;-89
2020/12/19 06:28:47;;;;;;;27.30;8.75;;;;;;;;;;5019282;28;20497;-89
2020/12/19 06:31:16;;;;;;;14.57;7.65;;;;;;;;;;5026086;28;20136;-88
2020/12/19 06:33:46;;;;;;;11.48;7.85;;;;;;;;;;5041342;28;20077;-89
2020/12/19 06:36:20;;;;;;;8.23;5.93;;;;;;;;;;5049561;28;20060;-88
2020/12/19 06:38:51;;;;;;;15.05;7.40;;;;;;;;;;5041938;28;20103;-88
2020/12/19 06:41:46;;;;;;;13.43;6.63;;;;;;;;;;5048532;28;20193;-88
2020/12/19 06:44:16;;;;;;;13.52;6.07;;;;;;;;;;5026219;28;20320;-88
2020/12/19 06:46:44;;;;;;;13.63;6.32;;;;;;;;;;5028002;28;20049;-89
2020/12/19 06:49:26;;;;;;;17.88;6.97;;;;;;;;;;5039411;28;20053;-89
2020/12/19 06:52:04;;;;;;;31.50;6.97;;;;;;;;;;5037649;28;20366;-88
2020/12/19 06:54:32;;;;;;;12.40;6.82;;;;;;;;;;4991329;28;20038;-89
2020/12/19 06:56:58;;;;;;;14.00;6.53;;;;;;;;;;5017509;28;20149;-88
2020/12/19 06:59:25;;;;;;;40.10;7.85;;;;;;;;;;5016296;28;20048;-88
2020/12/19 07:01:51;;;;;;;17.85;6.85;;;;;;;;;;5020034;28;20053;-88
2020/12/19 07:04:34;;;;;;;16.92;6.95;;;;;;;;;;5050476;28;20037;-87
2020/12/19 07:07:04;;;;;;;11.07;6.40;;;;;;;;;;5041377;28;20049;-87
2020/12/19 07:09:31;;;;;;;27.90;7.05;;;;;;;;;;5040998;28;20042;-89
2020/12/19 07:11:57;;;;;;;12.73;7.03;;;;;;;;;;5017728;28;20046;-89
2020/12/19 07:14:24;;;;;;;21.90;7.40;;;;;;;;;;5019503;28;20053;-89
2020/12/19 07:16:50;;;;;;;21.90;7.30;;;;;;;;;;5019796;28;20100;-89
2020/12/19 07:19:26;;;;;;;11.18;6.20;;;;;;;;;;5038734;28;20076;-89
2020/12/19 07:21:55;;;;;;;14.90;7.07;;;;;;;;;;5037086;28;20049;-89
2020/12/19 07:24:22;;;;;;;26.58;7.50;;;;;;;;;;5041615;28;20083;-89
2020/12/19 07:26:50;;;;;;;14.48;7.40;;;;;;;;;;5057950;28;20045;-89
2020/12/19 07:29:19;;;;;;;37.78;8.18;;;;;;;;;;5033117;28;20044;-89
2020/12/19 07:31:49;;;;;;;18.02;7.25;;;;;;;;;;5007637;28;20103;-89
2020/12/19 07:34:16;;;;;;;7.35;5.30;;;;;;;;;;5030048;28;20037;-89
2020/12/19 07:36:44;;;;;;;10.43;6.53;;;;;;;;;;5001928;28;20154;-88
2020/12/19 07:39:11;;;;;;;13.38;6.57;;;;;;;;;;5059641;28;20091;-87
2020/12/19 07:41:37;;;;;;;21.30;8.25;;;;;;;;;;5056703;28;20048;-89
2020/12/19 07:44:15;;;;;;;9.52;6.22;;;;;;;;;;5054851;28;20049;-89
2020/12/19 07:46:53;;;;;;;8.32;5.47;;;;;;;;;;5042541;28;20128;-89
2020/12/19 07:49:37;;;;;;;12.52;6.72;;;;;;;;;;5035531;28;20060;-90
2020/12/19 07:52:11;;;;;;;23.42;7.63;;;;;;;;;;5035256;28;20137;-89
2020/12/19 07:54:38;;;;;;;16.80;6.70;;;;;;;;;;5034270;28;20550;-88
2020/12/19 07:57:05;;;;;;;13.35;6.95;;;;;;;;;;5057831;28;20053;-89
2020/12/19 07:59:33;;;;;;;10.32;7.05;;;;;;;;;;5035427;28;20043;-89
2020/12/19 08:02:02;;;;;;;10.35;6.53;;;;;;;;;;5020005;28;20038;-89
2020/12/19 08:04:31;;;;;;;14.38;7.57;;;;;;;;;;5050467;28;20055;-88
2020/12/19 08:06:57;;;;;;;14.63;7.38;;;;;;;;;;5048852;28;20064;-88
2020/12/19 08:09:23;;;;;;;18.08;8.35;;;;;;;;;;5020878;28;20076;-88
2020/12/19 08:11:51;;;;;;;17.25;9.35;;;;;;;;;;5040277;28;20053;-88
2020/12/19 08:14:17;;;;;;;15.05;8.55;;;;;;;;;;5041027;28;20488;-88
2020/12/19 08:16:45;;;;;;;15.75;8.20;;;;;;;;;;5041277;28;20069;-89
2020/12/19 08:19:13;;;;;;;18.42;8.70;;;;;;;;;;5041701;28;20049;-88
2020/12/19 08:21:39;;;;;;;12.00;7.55;;;;;;;;;;5041625;28;20052;-88
2020/12/19 08:24:06;;;;;;;20.98;8.88;;;;;;;;;;5006432;28;20042;-89
2020/12/19 08:26:32;;;;;;;18.33;7.53;;;;;;;;;;5020137;28;20041;-88
2020/12/19 08:29:04;;;;;;;14.77;9.05;;;;;;;;;;5019281;28;20474;-89
2020/12/19 08:31:30;;;;;;;20.40;7.63;;;;;;;;;;5021019;28;20053;-89
2020/12/19 08:33:57;;;;;;;15.45;7.95;;;;;;;;;;5020364;28;20037;-88
2020/12/19 08:36:24;;;;;;;16.98;7.78;;;;;;;;;;5004260;28;20064;-89
2020/12/19 08:38:52;;;;;;;18.05;7.88;;;;;;;;;;5023345;28;20046;-88
2020/12/19 08:41:19;;;;;;;12.35;7.50;;;;;;;;;;5007627;28;20140;-88
2020/12/19 08:43:45;;;;;;;10.25;7.13;;;;;;;;;;5040781;28;20048;-87
2020/12/19 08:46:13;;;;;;;18.58;7.55;;;;;;;;;;5022930;28;20414;-88
2020/12/19 08:48:40;;;;;;;10.02;6.78;;;;;;;;;;5022377;28;20053;-87
2020/12/19 08:51:14;;;;;;;14.50;6.70;;;;;;;;;;5041450;28;20484;-87
2020/12/19 08:53:40;;;;;;;9.80;6.18;;;;;;;;;;5039558;28;20126;-87
2020/12/19 08:56:13;;;;;;;12.68;6.53;;;;;;;;;;5040255;28;20386;-86
2020/12/19 08:58:40;;;;;;;9.32;6.30;;;;;;;;;;5024271;28;20060;-87
2020/12/19 09:01:12;;;;;;;10.63;6.45;;;;;;;;;;5039848;28;20045;-87
2020/12/19 09:03:38;;;;;;;9.93;6.43;;;;;;;;;;5037619;28;20343;-88
2020/12/19 09:06:05;;;;;;;12.05;7.07;;;;;;;;;;5020415;28;20046;-87
2020/12/19 09:08:34;;;;;;;21.10;7.28;;;;;;;;;;5024000;28;20095;-86
2020/12/19 09:11:01;;;;;;;13.07;6.93;;;;;;;;;;5042798;28;20470;-87
2020/12/19 09:13:27;;;;;;;10.35;7.20;;;;;;;;;;5040446;28;20490;-87
2020/12/19 09:15:57;;;;;;;12.70;6.53;;;;;;;;;;5041403;28;20042;-86
2020/12/19 09:18:24;;;;;;;17.23;7.88;;;;;;;;;;5023956;28;20478;-87
2020/12/19 09:20:58;;;;;;;9.77;7.47;;;;;;;;;;5042181;28;20059;-88
2020/12/19 09:23:30;;;;;;;10.73;6.93;;;;;;;;;;5024592;28;20044;-88
2020/12/19 09:25:59;;;;;;;9.63;6.35;;;;;;;;;;5043958;28;20099;-87
2020/12/19 09:28:26;;;;;;;13.13;7.32;;;;;;;;;;5043036;28;20041;-87
2020/12/19 09:30:53;;;;;;;10.57;6.50;;;;;;;;;;5025403;28;20049;-87
2020/12/19 09:33:19;;;;;;;12.20;6.53;;;;;;;;;;5043108;28;20045;-88
2020/12/19 09:35:46;;;;;;;8.77;6.65;;;;;;;;;;5024002;28;20052;-88
2020/12/19 09:38:13;;;;;;;14.15;7.35;;;;;;;;;;5042216;28;20465;-88
2020/12/19 09:40:39;;;;;;;14.15;7.70;;;;;;;;;;5025014;28;20049;-87
2020/12/19 09:43:06;;;;;;;16.35;7.55;;;;;;;;;;5023250;28;20053;-87
2020/12/19 09:45:34;;;;;;;10.15;6.47;;;;;;;;;;5023567;28;20048;-87
2020/12/19 09:48:00;;;;;;;18.90;8.25;;;;;;;;;;5024286;28;20052;-87
2020/12/19 09:50:27;;;;;;;9.40;6.95;;;;;;;;;;5023966;28;20099;-87
2020/12/19 09:52:53;;;;;;;10.98;7.13;;;;;;;;;;5023642;28;20045;-86
2020/12/19 09:55:20;;;;;;;9.68;6.72;;;;;;;;;;5040936;28;20041;-85
2020/12/19 09:57:47;;;;;;;10.57;6.78;;;;;;;;;;5040760;28;20075;-86
2020/12/19 10:00:14;;;;;;;9.07;6.35;;;;;;;;;;5042189;28;20057;-87
2020/12/19 10:02:41;;;;;;;11.45;7.15;;;;;;;;;;5040964;28;20049;-86
2020/12/19 10:05:08;;;;;;;9.80;7.20;;;;;;;;;;5014709;28;20085;-86
2020/12/19 10:07:34;;;;;;;11.07;7.78;;;;;;;;;;5041530;28;20049;-86
2020/12/19 10:10:03;;;;;;;11.40;7.35;;;;;;;;;;5048988;28;20042;-86
2020/12/19 10:12:29;;;;;;;11.77;7.35;;;;;;;;;;5024886;28;20381;-86
2020/12/19 10:14:55;;;;;;;18.27;8.60;;;;;;;;;;5040667;28;20072;-86
2020/12/19 10:17:22;;;;;;;13.15;8.63;;;;;;;;;;5023161;28;20041;-86
2020/12/19 10:19:48;;;;;;;13.32;9.23;;;;;;;;;;5023289;28;20052;-86
2020/12/19 10:22:14;;;;;;;13.55;8.32;;;;;;;;;;5028407;28;20049;-85
2020/12/19 10:24:41;;;;;;;24.50;11.02;;;;;;;;;;5030661;28;20167;-84
2020/12/19 10:27:08;;;;;;;13.52;8.43;;;;;;;;;;5048801;28;20045;-85
2020/12/19 10:29:34;;;;;;;14.45;8.93;;;;;;;;;;5048821;28;20072;-84
2020/12/19 10:32:05;;;;;;;14.25;7.82;;;;;;;;;;5048557;28;20045;-84
2020/12/19 10:34:32;;;;;;;9.73;7.00;;;;;;;;;;5049463;28;20052;-85
2020/12/19 10:36:58;;;;;;;10.80;7.00;;;;;;;;;;5048873;28;20060;-85
2020/12/19 10:39:24;;;;;;;10.30;7.10;;;;;;;;;;5050263;28;20041;-83
2020/12/19 10:41:52;;;;;;;11.30;7.38;;;;;;;;;;5032775;28;20390;-82
2020/12/19 10:44:18;;;;;;;9.68;7.05;;;;;;;;;;5030118;28;20053;-85
2020/12/19 10:46:44;;;;;;;12.00;7.80;;;;;;;;;;5030572;28;20053;-84
2020/12/19 10:49:10;;;;;;;12.85;8.40;;;;;;;;;;5031187;28;20057;-84
2020/12/19 10:51:37;;;;;;;11.32;8.38;;;;;;;;;;5046983;28;20050;-86
2020/12/19 10:54:03;;;;;;;11.38;8.48;;;;;;;;;;5047974;28;20381;-86
2020/12/19 10:56:29;;;;;;;13.63;9.07;;;;;;;;;;5047923;28;20399;-86
2020/12/19 10:58:55;;;;;;;14.40;9.68;;;;;;;;;;5028491;28;20076;-87
2020/12/19 11:01:21;;;;;;;11.45;8.48;;;;;;;;;;5042256;28;20045;-86
2020/12/19 11:03:47;;;;;;;16.58;10.68;;;;;;;;;;5039637;28;20064;-86
2020/12/19 11:06:21;;;;;;;12.23;9.07;;;;;;;;;;5022326;28;20054;-87
2020/12/19 11:08:49;;;;;;;14.82;11.30;;;;;;;;;;5040474;28;20045;-86
2020/12/19 11:11:16;;;;;;;14.10;10.07;;;;;;;;;;5039470;28;20049;-86
2020/12/19 11:13:43;;;;;;;18.08;10.50;;;;;;;;;;5002673;28;20065;-86
2020/12/19 11:16:13;;;;;;;12.05;9.27;;;;;;;;;;5023118;28;20057;-86
2020/12/19 11:18:47;;;;;;;12.32;8.60;;;;;;;;;;5022171;28;20051;-86
2020/12/19 11:21:23;;;;;;;14.40;8.98;;;;;;;;;;5036862;28;20045;-86
2020/12/19 11:23:50;;;;;;;11.75;8.63;;;;;;;;;;5022269;28;20189;-84
2020/12/19 11:26:19;;;;;;;33.65;18.10;;;;;;;;;;5040874;28;20421;-85
2020/12/19 11:28:47;;;;;;;17.13;10.00;;;;;;;;;;5023877;28;20041;-86
2020/12/19 11:31:14;;;;;;;11.90;8.45;;;;;;;;;;5024013;28;20045;-86
2020/12/19 11:33:40;;;;;;;12.48;7.70;;;;;;;;;;5042418;28;20041;-86
2020/12/19 11:36:06;;;;;;;11.07;7.90;;;;;;;;;;5040305;28;20041;-87
2020/12/19 11:38:32;;;;;;;11.38;7.55;;;;;;;;;;5004831;28;20052;-86
2020/12/19 11:40:59;;;;;;;12.80;8.57;;;;;;;;;;5038710;28;20478;-87
2020/12/19 11:43:27;;;;;;;12.63;7.03;;;;;;;;;;5037553;28;20041;-87
2020/12/19 11:45:53;;;;;;;10.73;8.10;;;;;;;;;;5020670;28;20083;-86
2020/12/19 11:48:32;;;;;;;14.57;7.97;;;;;;;;;;5036148;28;20053;-85
2020/12/19 11:51:02;;;;;;;11.57;8.43;;;;;;;;;;5037071;28;20089;-86
2020/12/19 11:53:28;;;;;;;10.00;8.00;;;;;;;;;;5036650;28;20037;-86
2020/12/19 11:55:54;;;;;;;12.48;8.65;;;;;;;;;;5037789;28;20139;-87
2020/12/19 11:58:31;;;;;;;;;;;;;;;;;;;;;
2020/12/19 12:01:03;;;;;;;13.05;8.93;;;;;;;;;;5006008;28;20136;-87
2020/12/19 12:03:30;;;;;;;15.82;9.77;;;;;;;;;;5005204;28;20108;-86
2020/12/19 12:05:57;;;;;;;12.18;9.55;;;;;;;;;;5020129;28;20529;-84
2020/12/19 12:08:23;;;;;;;13.25;9.60;;;;;;;;;;5005285;28;20048;-86
2020/12/19 12:10:49;;;;;;;14.88;9.63;;;;;;;;;;5040018;28;20042;-86
2020/12/19 12:13:16;;;;;;;14.63;10.18;;;;;;;;;;5040088;28;20041;-86
2020/12/19 12:15:43;;;;;;;14.82;9.90;;;;;;;;;;5019852;28;20049;-87
2020/12/19 12:18:09;;;;;;;15.27;9.15;;;;;;;;;;5038369;28;20056;-86
2020/12/19 12:20:35;;;;;;;11.13;8.52;;;;;;;;;;5038208;28;20045;-87
2020/12/19 12:23:01;;;;;;;13.02;9.50;;;;;;;;;;5021212;28;20405;-85
2020/12/19 12:25:28;;;;;;;13.70;9.85;;;;;;;;;;5007193;28;20055;-86
2020/12/19 12:27:54;;;;;;;13.10;9.40;;;;;;;;;;5039225;28;20481;-87
2020/12/19 12:30:20;;;;;;;17.45;9.82;;;;;;;;;;5005497;28;20080;-86
2020/12/19 12:32:50;;;;;;;12.20;9.48;;;;;;;;;;5021341;28;20041;-86
2020/12/19 12:35:16;;;;;;;15.85;9.23;;;;;;;;;;5038881;28;20136;-86
2020/12/19 12:37:43;;;;;;;14.50;9.63;;;;;;;;;;5022743;28;20354;-86
2020/12/19 12:40:09;;;;;;;17.13;9.98;;;;;;;;;;5006255;28;20057;-86
2020/12/19 12:42:35;;;;;;;17.65;12.23;;;;;;;;;;5038573;28;20132;-87
2020/12/19 12:45:01;;;;;;;15.07;10.35;;;;;;;;;;5039008;28;20060;-84
2020/12/19 12:47:27;;;;;;;13.50;9.25;;;;;;;;;;5039606;28;20051;-84
2020/12/19 12:49:54;;;;;;;12.88;9.20;;;;;;;;;;5039929;28;20047;-87
2020/12/19 12:52:22;;;;;;;13.23;9.20;;;;;;;;;;5040797;28;20065;-85
2020/12/19 12:54:49;;;;;;;12.98;8.85;;;;;;;;;;5026673;28;20105;-86
2020/12/19 12:57:15;;;;;;;12.60;8.23;;;;;;;;;;5025079;28;20050;-85
2020/12/19 12:59:45;;;;;;;12.40;8.20;;;;;;;;;;5042395;28;20436;-87
2020/12/19 13:02:19;;;;;;;17.23;11.07;;;;;;;;;;5023359;28;20041;-88
2020/12/19 13:04:45;;;;;;;13.73;9.30;;;;;;;;;;5043172;28;20439;-86
2020/12/19 13:07:17;;;;;;;11.73;8.35;;;;;;;;;;5042060;28;20049;-87
2020/12/19 13:09:43;;;;;;;13.88;8.95;;;;;;;;;;5025713;28;20049;-86
2020/12/19 13:12:12;;;;;;;15.73;9.18;;;;;;;;;;5024694;28;20041;-87
2020/12/19 13:14:38;;;;;;;12.90;8.93;;;;;;;;;;5015507;28;20045;-88
2020/12/19 13:17:04;;;;;;;12.85;9.07;;;;;;;;;;5019066;28;20045;-86
2020/12/19 13:19:30;;;;;;;14.20;9.80;;;;;;;;;;5034284;28;20053;-87
2020/12/19 13:21:56;;;;;;;26.38;15.40;;;;;;;;;;5021052;28;20426;-87
2020/12/19 13:24:23;;;;;;;16.08;10.98;;;;;;;;;;5005581;28;20072;-87
2020/12/19 13:26:50;;;;;;;15.05;9.98;;;;;;;;;;5020898;28;20041;-87
2020/12/19 13:29:17;;;;;;;16.35;9.95;;;;;;;;;;5008039;28;20505;-86
2020/12/19 13:31:44;;;;;;;18.77;10.20;;;;;;;;;;5018401;28;20037;-87
2020/12/19 13:34:10;;;;;;;13.82;9.65;;;;;;;;;;5028648;28;20045;-88
2020/12/19 13:36:36;;;;;;;15.27;10.50;;;;;;;;;;5035695;28;20053;-87
2020/12/19 13:39:03;;;;;;;18.17;10.60;;;;;;;;;;5010576;28;20045;-88
2020/12/19 13:41:30;;;;;;;15.60;9.73;;;;;;;;;;5045487;28;20051;-84
2020/12/19 13:43:56;;;;;;;19.98;11.68;;;;;;;;;;5041710;28;20038;-86
2020/12/19 13:46:22;;;;;;;17.02;11.23;;;;;;;;;;5026696;28;20044;-87
2020/12/19 13:48:48;;;;;;;15.93;11.25;;;;;;;;;;5029494;28;20050;-87
2020/12/19 13:51:14;;;;;;;14.48;10.23;;;;;;;;;;5044069;28;20050;-87
2020/12/19 13:53:40;;;;;;;14.00;10.10;;;;;;;;;;5029728;28;20049;-86
2020/12/19 13:56:06;;;;;;;20.65;9.65;;;;;;;;;;5047291;28;20072;-87
2020/12/19 13:58:33;;;;;;;19.05;9.73;;;;;;;;;;5029730;28;20041;-87
2020/12/19 14:00:59;;;;;;;16.58;9.70;;;;;;;;;;5047197;28;20077;-86
2020/12/19 14:03:25;;;;;;;14.63;9.10;;;;;;;;;;5042790;28;20076;-87
2020/12/19 14:05:51;;;;;;;16.08;9.30;;;;;;;;;;5028880;28;20041;-87
2020/12/19 14:08:17;;;;;;;15.10;9.43;;;;;;;;;;5028777;28;20063;-87
2020/12/19 14:10:44;;;;;;;18.88;10.85;;;;;;;;;;5015757;28;20049;-86
2020/12/19 14:13:10;;;;;;;19.17;10.98;;;;;;;;;;5047637;28;20073;-86
2020/12/19 14:15:37;;;;;;;19.25;10.88;;;;;;;;;;5017176;28;20037;-86
2020/12/19 14:18:04;;;;;;;23.95;10.73;;;;;;;;;;5045495;28;20037;-86
2020/12/19 14:20:30;;;;;;;32.92;12.80;;;;;;;;;;5051998;28;20060;-87
2020/12/19 14:22:55;;;;;;;39.10;12.98;;;;;;;;;;5031280;28;20061;-85
2020/12/19 14:25:23;;;;;;;17.38;11.52;;;;;;;;;;5049347;28;20041;-87
2020/12/19 14:27:49;;;;;;;22.20;11.63;;;;;;;;;;5032083;28;20041;-86
2020/12/19 14:30:17;;;;;;;18.88;11.65;;;;;;;;;;5052000;28;20051;-86
2020/12/19 14:32:44;;;;;;;29.35;12.13;;;;;;;;;;5019471;28;20490;-86